Terminal Aerodrome Forecast
Issued by NWS Grand Forks, ND

Home | Current Version | Previous Version | Text Only | Print | Product List | Glossary Off
Versions: 1 2 3 4 5 6 7 8 9 10 11 12 13 14

000
FTUS43 KFGF 231100
TAFFAR
TAF
KFAR 231137Z 2312/2412 28005KT P6SM SKC
     FM231700 17005KT P6SM SCT250
     FM232200 15008KT P6SM BKN250
     FM240300 12009KT P6SM OVC060
     FM240700 12009KT P6SM -RA OVC040=

USA.gov is the U.S. government's official web portal to all federal, state and local government web resources and services.